Terminal Aerodrome Forecast
Issued by NWS

Home | Current Version | Previous Version | Text Only | Print | Product List | Glossary On
Versions: 1 2 3 4 5 6 7 8 9 10 11 12 13 14 15 16 17 18 19 20 21 22 23 24 25 26 27 28 29 30 31 32 33 34 35 36
000
FTUS43 KDLH 020100 AAB
TAFHIB
TAF AMD
KHIB 020118Z 0201/0224 16004KT 2SM BR OVC003
     FM020800 27004KT 3/4SM BR OVC002
     FM021400 30003KT 4SM BR BKN008
     FM021600 30004KT P6SM BKN015
     FM021800 29004KT P6SM OVC050=

USA.gov is the U.S. government's official web portal to all federal, state and local government web resources and services.